Washington, DC (20254)

2:52 AM EDT on October 23, 2014 (GMT -0400)
DCNet Hoover Building Washington DC | Change Station
CLOSE
Current Station
Personal Weather Station
Location: Washington, DC
Elevation: 231 ft
Nearby Weather Stations

Elev 231 ft 38.89 °N, 77.03 °W | Updated 22 minutes ago

Mostly Cloudy
Mostly Cloudy
53 °F
Feels Like 53 °F
N
11
Wind Variable Wind from WNW
Gusts 0.0 mph

Today
High -- | Low -- °F
--% Chance of Precip.
Yesterday
High -- | Low -- °F
Precip. -- in
7:25 AM 6:18 PM
Waning Crescent, 0% visible
Pressure 29.92 in
Visibility 10.0 miles
Clouds Scattered Clouds 3700 ft
Mostly Cloudy 6500 ft
Dew Point 43 °F
Humidity 69%
Rainfall -999.00 in
Snow Depth Not available.
UV 0 out of 12
Pollen .50 out of 12
Air Quality Not available.
Flu Activity Sporadic
METAR KDCA 230552Z 32016G22KT 10SM SCT037 BKN065 13/05 A2992 RMK AO2 PK WND 33026/0505 SLP130 T01280050 10144 20122 56009

More Conditions Fewer Conditions

Pressure 29.92 in
Visibility 10.0 miles
Clouds Scattered Clouds 3700 ft
Mostly Cloudy 6500 ft
Dew Point 43 °F
Humidity 69%
Rainfall -999.00 in
Snow Depth Not available.
UV 0 out of 12
Pollen .50 out of 12
Air Quality Not available.
Flu Activity Sporadic
METAR KDCA 230552Z 32016G22KT 10SM SCT037 BKN065 13/05 A2992 RMK AO2 PK WND 33026/0505 SLP130 T01280050 10144 20122 56009

More Conditions Fewer Conditions

10-Day Weather Forecast

Almanac

Astronomy

Oct. 23, 2014 Rise Set
Actual Time 7:25 AM EDT 6:18 PM EDT
Civil Twilight 6:58 AM EDT 6:45 PM EDT
Nautical Twilight 6:27 AM EDT 7:16 PM EDT
Astronomical Twilight 5:56 AM EDT 7:47 PM EDT
Moon 7:03 AM EDT 6:18 PM EDT
Length of Visible Light 11h 47m
Length of Day
10h 52m
Tomorrow will be 2m 21s shorter.
Waning Crescent, 0% of the Moon is Illuminated
Today
Waning Crescent
Oct 23
New
Oct 30
First Quarter
Nov 6
Full
Nov 14
Last Quarter

Today's Extremes

State Highs State Lows

Community

WunderPhotos

Upload Photos

1,764,194 photos uploaded!

Nearby

Snow Depth

Station Depth Elevation
No new snow has been reported.

Earthquake Activity

City Distance Mag. Time & Date
No recent earthquake activity has been reported nearby.
Minimum magnitude displayed is 2.5.

Coastal Water Temperatures

Place Temperature
Washington, DC 62.1 °F
Baltimore, MD 64.9 °F
Solomons Island, MD 64.0 °F

Nearby Weather Stations